createdAt,value
2018-08-20T00:01:36.590Z,97971.45
2018-08-20T00:04:08.442Z,97963.06
2018-08-20T00:06:49.519Z,97967.98
2018-08-20T00:11:47.755Z,97968.75
2018-08-20T00:14:20.329Z,97961.55
2018-08-20T00:16:49.742Z,97969.77
2018-08-20T00:19:18.549Z,97970.21
2018-08-20T00:21:47.702Z,97966.96
2018-08-20T00:24:16.742Z,97973.39
2018-08-20T00:26:45.852Z,97972.00
2018-08-20T00:29:14.983Z,97976.13
2018-08-20T00:31:44.199Z,97976.97
2018-08-20T00:34:13.704Z,97977.18
2018-08-20T00:36:44.939Z,97971.48
2018-08-20T00:39:14.089Z,97969.66
2018-08-20T00:41:42.953Z,97971.84
2018-08-20T00:44:16.526Z,97982.27
2018-08-20T00:46:46.055Z,97977.88
2018-08-20T00:49:16.611Z,97981.30
2018-08-20T00:51:45.934Z,97986.15
2018-08-20T00:54:15.154Z,97985.86
2018-08-20T00:56:44.358Z,97978.18
2018-08-20T00:59:13.589Z,97974.50
2018-08-20T01:01:42.837Z,97967.13
2018-08-20T01:04:12.006Z,97964.80
2018-08-20T01:06:41.156Z,97964.45
2018-08-20T01:09:10.319Z,97965.30
2018-08-20T01:11:39.623Z,97969.58
2018-08-20T01:14:08.718Z,97971.86
2018-08-20T01:16:37.664Z,97967.72
2018-08-20T01:19:06.812Z,97966.70
2018-08-20T01:21:35.705Z,97965.48
2018-08-20T01:24:04.963Z,97962.28
2018-08-20T01:26:34.183Z,97963.53
2018-08-20T01:29:02.961Z,97960.92
2018-08-20T01:31:32.111Z,97958.81
2018-08-20T01:34:01.238Z,97958.90
2018-08-20T01:36:30.415Z,97954.74
2018-08-20T01:38:59.612Z,97960.25
2018-08-20T01:41:28.713Z,97953.17
2018-08-20T01:43:57.577Z,97949.68
2018-08-20T01:46:26.422Z,97951.72
2018-08-20T01:48:55.559Z,97951.89
2018-08-20T01:51:24.630Z,97946.13
2018-08-20T01:53:53.730Z,97946.25
2018-08-20T01:56:22.709Z,97943.22
2018-08-20T01:58:51.914Z,97940.80
2018-08-20T02:01:21.171Z,97949.27
2018-08-20T02:03:50.076Z,97949.73
2018-08-20T02:06:19.183Z,97949.22
2018-08-20T02:08:48.389Z,97945.45
2018-08-20T02:11:17.630Z,97945.18
2018-08-20T02:13:46.620Z,97945.77
2018-08-20T02:16:15.823Z,97952.83
2018-08-20T02:18:45.168Z,97962.52
2018-08-20T02:21:14.278Z,97960.42
2018-08-20T02:23:43.367Z,97955.91
2018-08-20T02:26:12.467Z,97946.30
2018-08-20T02:28:41.553Z,97950.19
2018-08-20T02:31:10.603Z,97951.80
2018-08-20T02:33:39.265Z,97949.13
2018-08-20T02:36:08.422Z,97950.77
2018-08-20T02:38:37.630Z,97944.06
2018-08-20T02:41:06.606Z,97955.78
2018-08-20T02:43:35.859Z,97946.84
2018-08-20T02:46:05.075Z,97951.86
2018-08-20T02:48:34.212Z,97951.91
2018-08-20T02:51:03.477Z,97954.70
2018-08-20T02:53:32.606Z,97957.72
2018-08-20T02:56:01.730Z,97960.22
2018-08-20T02:58:30.606Z,97963.41
2018-08-20T03:00:59.826Z,97966.19
2018-08-20T03:03:29.077Z,97965.64
2018-08-20T03:05:58.211Z,97969.02
2018-08-20T03:08:27.190Z,97964.61
2018-08-20T03:10:56.165Z,97967.05
2018-08-20T03:13:25.139Z,97969.19
2018-08-20T03:15:54.246Z,97971.92
2018-08-20T03:18:23.279Z,97963.72
2018-08-20T03:20:52.464Z,97965.91
2018-08-20T03:23:21.450Z,97969.26
2018-08-20T03:25:50.683Z,97958.59
2018-08-20T03:28:19.701Z,97964.86
2018-08-20T03:30:48.766Z,97956.11
2018-08-20T03:33:17.593Z,97958.14
2018-08-20T03:35:46.858Z,97957.39
2018-08-20T03:38:15.673Z,97965.66
2018-08-20T03:40:44.462Z,97961.28
2018-08-20T03:43:13.769Z,97961.62
2018-08-20T03:45:42.967Z,97963.70
2018-08-20T03:48:11.959Z,97964.05
2018-08-20T03:50:41.099Z,97958.89
2018-08-20T03:53:10.410Z,97958.89
2018-08-20T03:55:39.526Z,97966.42
2018-08-20T03:58:08.522Z,97969.91
2018-08-20T04:00:37.481Z,97967.06
2018-08-20T04:03:07.071Z,97970.43
2018-08-20T04:05:36.289Z,97964.88
2018-08-20T04:08:05.303Z,97960.16
2018-08-20T04:10:34.287Z,97968.52
2018-08-20T04:13:03.250Z,97965.20
2018-08-20T04:15:32.392Z,97969.25
2018-08-20T04:18:01.211Z,97970.00
2018-08-20T04:20:30.485Z,97976.08
2018-08-20T04:22:59.723Z,97975.84
2018-08-20T04:25:28.922Z,97981.50
2018-08-20T04:27:57.788Z,97983.30
2018-08-20T04:30:26.994Z,97975.94
2018-08-20T04:32:55.730Z,97979.59
2018-08-20T04:35:24.898Z,97986.53
2018-08-20T04:37:53.807Z,97973.02
2018-08-20T04:40:22.636Z,97973.45
2018-08-20T04:42:51.910Z,97978.29
2018-08-20T04:45:20.727Z,97972.36
2018-08-20T04:47:50.004Z,97978.63
2018-08-20T04:50:19.312Z,97979.60
2018-08-20T04:52:48.446Z,97979.42
2018-08-20T04:55:17.617Z,97975.94
2018-08-20T04:57:46.739Z,97974.17
2018-08-20T05:00:15.971Z,97972.67
2018-08-20T05:02:44.886Z,97973.66
2018-08-20T05:05:14.159Z,97975.25
2018-08-20T05:07:43.212Z,97967.19
2018-08-20T05:10:12.518Z,97968.66
2018-08-20T05:12:41.326Z,97974.64
2018-08-20T05:15:10.596Z,97976.35
2018-08-20T05:17:39.474Z,97981.95
2018-08-20T05:20:09.115Z,97979.50
2018-08-20T05:22:38.334Z,97981.11
2018-08-20T05:25:07.528Z,97982.42
2018-08-20T05:27:36.636Z,97980.38
2018-08-20T05:30:06.606Z,97979.52
2018-08-20T05:32:35.681Z,97978.06
2018-08-20T05:35:05.057Z,97976.24
2018-08-20T05:37:34.029Z,97981.08
2018-08-20T05:40:03.159Z,97979.86
2018-08-20T05:42:32.117Z,97980.20
2018-08-20T05:45:01.410Z,97990.91
2018-08-20T05:47:30.593Z,97992.45
2018-08-20T05:50:00.014Z,97991.45
2018-08-20T05:52:29.122Z,97995.75
2018-08-20T05:54:58.210Z,98000.97
2018-08-20T05:57:27.306Z,97992.80
2018-08-20T05:59:56.144Z,97999.83
2018-08-20T06:02:25.108Z,97998.56
2018-08-20T06:04:54.282Z,97998.28
2018-08-20T06:07:23.633Z,98003.03
2018-08-20T06:09:52.528Z,97999.23
2018-08-20T06:12:21.635Z,98003.80
2018-08-20T06:14:50.944Z,97999.86
2018-08-20T06:17:19.817Z,98001.87
2018-08-20T06:19:49.072Z,98007.34
2018-08-20T06:22:18.250Z,98003.61
2018-08-20T06:24:47.263Z,98004.66
2018-08-20T06:27:16.434Z,98008.84
2018-08-20T06:29:45.669Z,98006.16
2018-08-20T06:32:14.569Z,98008.77
2018-08-20T06:34:43.665Z,98010.83
2018-08-20T06:37:12.823Z,98012.03
2018-08-20T06:39:41.750Z,98016.31
2018-08-20T06:42:10.858Z,98010.44
2018-08-20T06:44:40.135Z,98007.91
2018-08-20T06:47:09.378Z,98014.57
2018-08-20T06:49:38.334Z,98017.20
2018-08-20T06:52:07.309Z,98019.60
2018-08-20T06:54:36.569Z,98016.34
2018-08-20T06:57:05.355Z,98020.46
2018-08-20T06:59:34.506Z,98019.58
2018-08-20T07:02:03.713Z,98012.75
2018-08-20T07:04:32.738Z,98014.64
2018-08-20T07:07:02.206Z,98009.48
2018-08-20T07:09:31.077Z,98014.23
2018-08-20T07:12:00.020Z,98008.73
2018-08-20T07:14:29.282Z,98016.01
2018-08-20T07:16:58.364Z,98013.72
2018-08-20T07:19:28.380Z,98016.41
2018-08-20T07:21:57.246Z,98019.61
2018-08-20T07:24:26.369Z,98020.52
2018-08-20T07:26:55.218Z,98022.58
2018-08-20T07:29:39.705Z,98018.34
2018-08-20T07:32:13.417Z,98026.70
2018-08-20T07:34:43.370Z,98020.25
2018-08-20T07:37:13.536Z,98021.61
2018-08-20T07:39:44.168Z,98024.08
2018-08-20T07:42:13.482Z,98022.48
2018-08-20T07:44:43.447Z,98025.34
2018-08-20T07:47:12.818Z,98021.20
2018-08-20T07:49:42.124Z,98026.83
2018-08-20T07:52:11.853Z,98020.80
2018-08-20T07:54:41.173Z,98021.75
2018-08-20T07:57:10.879Z,98020.48
2018-08-20T07:59:40.274Z,98015.02
2018-08-20T08:02:09.861Z,98017.35
2018-08-20T08:04:39.001Z,98016.93
2018-08-20T08:07:08.152Z,98017.05
2018-08-20T08:09:37.298Z,98011.91
2018-08-20T08:12:06.663Z,98006.67
2018-08-20T08:14:35.606Z,98007.05
2018-08-20T08:17:04.528Z,98006.29
2018-08-20T08:19:33.710Z,98007.09
2018-08-20T08:22:03.097Z,98008.17
2018-08-20T08:24:32.434Z,98005.59
2018-08-20T08:27:01.183Z,98011.19
2018-08-20T08:29:30.448Z,98002.66
2018-08-20T08:31:59.514Z,98003.83
2018-08-20T08:34:28.557Z,98008.47
2018-08-20T08:36:57.908Z,98015.08
2018-08-20T08:39:26.970Z,98011.78
2018-08-20T08:41:55.738Z,98017.30
2018-08-20T08:44:24.830Z,98028.05
2018-08-20T08:46:54.182Z,98014.06
2018-08-20T08:49:23.212Z,98022.48
2018-08-20T08:51:52.282Z,98016.91
2018-08-20T08:54:21.414Z,98010.45
2018-08-20T08:56:50.231Z,98015.48
2018-08-20T08:59:19.157Z,98011.45
2018-08-20T09:01:48.470Z,98012.35
2018-08-20T09:04:17.597Z,98016.59
2018-08-20T09:06:46.725Z,98000.50
2018-08-20T09:09:15.974Z,98005.31
2018-08-20T09:11:45.228Z,98001.28
2018-08-20T09:14:14.135Z,97999.38
2018-08-20T09:16:43.398Z,98004.09
2018-08-20T09:19:12.474Z,97997.42
2018-08-20T09:21:41.702Z,97994.23
2018-08-20T09:24:10.846Z,97991.48
2018-08-20T09:26:40.044Z,97993.03
2018-08-20T09:29:09.172Z,97989.77
2018-08-20T09:31:38.125Z,97982.71
2018-08-20T09:34:07.630Z,97980.39
2018-08-20T09:36:36.867Z,97979.80
2018-08-20T09:39:07.019Z,97972.54
2018-08-20T09:41:36.391Z,97975.84
2018-08-20T09:44:05.200Z,97970.56
2018-08-20T09:46:34.042Z,97963.12
2018-08-20T09:49:03.297Z,97967.03
2018-08-20T09:51:32.629Z,97973.30
2018-08-20T09:54:01.820Z,97971.69
2018-08-20T09:56:31.218Z,97972.75
2018-08-20T09:59:00.627Z,97971.27
2018-08-20T10:01:29.731Z,97956.61
2018-08-20T10:03:58.838Z,97960.20
2018-08-20T10:06:27.903Z,97962.38
2018-08-20T10:08:57.063Z,97961.75
2018-08-20T10:11:26.219Z,97962.62
2018-08-20T10:13:55.311Z,97958.30
2018-08-20T10:16:24.028Z,97963.97
2018-08-20T10:18:52.971Z,97948.81
2018-08-20T10:21:22.264Z,97952.25
2018-08-20T10:23:51.164Z,97959.99
2018-08-20T10:26:20.381Z,97961.20
2018-08-20T10:28:49.490Z,97949.56
2018-08-20T10:31:18.427Z,97955.55
2018-08-20T10:33:47.546Z,97957.70
2018-08-20T10:36:16.797Z,97945.73
2018-08-20T10:38:45.783Z,97955.48
2018-08-20T10:41:14.857Z,97950.53
2018-08-20T10:43:43.942Z,97945.33
2018-08-20T10:46:17.951Z,97949.75
2018-08-20T10:48:47.139Z,97955.84
2018-08-20T10:51:16.026Z,97956.16
2018-08-20T10:53:45.271Z,97955.41
2018-08-20T10:56:14.598Z,97960.86
2018-08-20T10:58:43.772Z,97954.50
2018-08-20T11:01:12.810Z,97967.53
2018-08-20T11:03:47.761Z,97969.33
2018-08-20T11:06:17.671Z,97967.08
2018-08-20T11:08:46.974Z,97974.99
2018-08-20T11:11:16.094Z,97970.48
2018-08-20T11:13:45.247Z,97963.86
2018-08-20T11:16:14.465Z,97965.27
2018-08-20T11:18:43.700Z,97963.50
2018-08-20T11:21:12.586Z,97965.61
2018-08-20T11:23:41.651Z,97962.05
2018-08-20T11:26:10.740Z,97955.33
2018-08-20T11:28:39.594Z,97956.59
2018-08-20T11:31:08.581Z,97963.53
2018-08-20T11:33:37.557Z,97959.16
2018-08-20T11:36:06.901Z,97962.41
2018-08-20T11:38:36.086Z,97953.55
2018-08-20T11:41:05.173Z,97953.95
2018-08-20T11:43:34.110Z,97951.20
2018-08-20T11:46:03.195Z,97951.47
2018-08-20T11:48:32.284Z,97941.74
2018-08-20T11:51:02.435Z,97946.83
2018-08-20T11:53:31.461Z,97933.90
2018-08-20T11:56:00.624Z,97939.28
2018-08-20T11:58:29.727Z,97942.92
2018-08-20T12:00:58.624Z,97938.52
2018-08-20T12:03:27.547Z,97934.28
2018-08-20T12:05:56.630Z,97935.66
2018-08-20T12:08:25.775Z,97932.03
2018-08-20T12:10:54.515Z,97926.97
2018-08-20T12:13:23.356Z,97928.59
2018-08-20T12:15:52.584Z,97919.69
2018-08-20T12:18:21.630Z,97929.49
2018-08-20T12:20:50.542Z,97918.69
2018-08-20T12:23:19.881Z,97923.81
2018-08-20T12:25:48.937Z,97917.02
2018-08-20T12:28:18.118Z,97914.20
2018-08-20T12:30:47.397Z,97903.77
2018-08-20T12:33:16.391Z,97898.95
2018-08-20T12:35:45.436Z,97891.09
2018-08-20T12:38:14.459Z,97887.50
2018-08-20T12:40:43.580Z,97892.05
2018-08-20T12:43:12.817Z,97885.36
2018-08-20T12:45:41.486Z,97884.27
2018-08-20T12:48:10.330Z,97884.31
2018-08-20T12:50:39.243Z,97877.62
2018-08-20T12:53:08.481Z,97876.55
2018-08-20T12:55:37.335Z,97873.68
2018-08-20T12:58:06.503Z,97872.34
2018-08-20T13:00:35.653Z,97873.77
2018-08-20T13:03:04.994Z,97871.96
2018-08-20T13:05:33.790Z,97867.00
2018-08-20T13:08:02.933Z,97876.10
2018-08-20T13:10:32.246Z,97866.45
2018-08-20T13:13:01.372Z,97861.42
2018-08-20T13:15:30.563Z,97866.37
2018-08-20T13:17:59.701Z,97856.45
2018-08-20T13:20:28.941Z,97850.94
2018-08-20T13:22:58.190Z,97849.14
2018-08-20T13:25:27.329Z,97848.88
2018-08-20T13:27:56.571Z,97842.25
2018-08-20T13:30:25.699Z,97847.46
2018-08-20T13:32:54.671Z,97834.94
2018-08-20T13:35:23.846Z,97835.93
2018-08-20T13:37:52.866Z,97825.48
2018-08-20T13:40:21.846Z,97822.58
2018-08-20T13:42:51.105Z,97824.61
2018-08-20T13:45:20.346Z,97824.66
2018-08-20T13:47:49.593Z,97826.67
2018-08-20T13:50:18.778Z,97822.52
2018-08-20T13:52:48.225Z,97818.59
2018-08-20T13:55:17.334Z,97817.37
2018-08-20T13:57:48.273Z,97818.81
2018-08-20T14:00:19.556Z,97810.30
2018-08-20T14:02:48.839Z,97805.61
2018-08-20T14:05:20.828Z,97796.38
2018-08-20T14:07:52.518Z,97802.66
2018-08-20T14:10:21.770Z,97796.88
2018-08-20T14:12:50.981Z,97801.46
2018-08-20T14:15:20.076Z,97797.92
2018-08-20T14:17:49.329Z,97802.64
2018-08-20T14:20:18.560Z,97809.30
2018-08-20T14:22:47.294Z,97795.63
2018-08-20T14:25:16.570Z,97791.98
2018-08-20T14:27:45.807Z,97794.05
2018-08-20T14:30:15.690Z,97790.63
2018-08-20T14:32:45.362Z,97786.84
2018-08-20T14:35:14.438Z,97792.80
2018-08-20T14:37:43.330Z,97788.84
2018-08-20T14:40:16.528Z,97786.02
2018-08-20T14:42:45.924Z,97779.84
2018-08-20T14:45:15.971Z,97783.81
2018-08-20T14:47:45.666Z,97776.70
2018-08-20T14:50:17.424Z,97781.34
2018-08-20T14:52:46.575Z,97782.73
2018-08-20T14:55:15.558Z,97782.78
2018-08-20T14:57:44.713Z,97785.19
2018-08-20T15:00:15.011Z,97779.83
2018-08-20T15:02:44.031Z,97778.33
2018-08-20T15:05:12.827Z,97770.19
2018-08-20T15:07:42.019Z,97772.50
2018-08-20T15:10:11.348Z,97769.23
2018-08-20T15:12:40.499Z,97775.08
2018-08-20T15:15:09.875Z,97761.92
2018-08-20T15:17:38.715Z,97764.25
2018-08-20T15:20:08.631Z,97771.89
2018-08-20T15:22:38.116Z,97769.74
2018-08-20T15:25:07.568Z,97773.25
2018-08-20T15:27:36.754Z,97772.48
2018-08-20T15:30:06.419Z,97768.45
2018-08-20T15:32:35.717Z,97763.56
2018-08-20T15:35:05.008Z,97763.13
2018-08-20T15:37:33.853Z,97773.20
2018-08-20T15:40:02.586Z,97771.19
2018-08-20T15:42:31.844Z,97777.47
2018-08-20T15:45:00.950Z,97775.41
2018-08-20T15:47:29.763Z,97786.72
2018-08-20T15:49:58.933Z,97782.87
2018-08-20T15:52:27.823Z,97780.16
2018-08-20T15:54:56.748Z,97784.45
2018-08-20T15:57:25.830Z,97775.04
2018-08-20T15:59:54.610Z,97772.87
2018-08-20T16:02:23.730Z,97774.22
2018-08-20T16:04:53.048Z,97775.77
2018-08-20T16:07:22.362Z,97768.01
2018-08-20T16:09:51.177Z,97770.45
2018-08-20T16:12:20.351Z,97777.22
2018-08-20T16:14:49.547Z,97778.06
2018-08-20T16:17:18.700Z,97777.73
2018-08-20T16:19:47.838Z,97776.55
2018-08-20T16:22:17.118Z,97775.37
2018-08-20T16:24:46.415Z,97778.42
2018-08-20T16:27:15.522Z,97776.72
2018-08-20T16:29:44.618Z,97770.27
2018-08-20T16:32:13.717Z,97775.99
2018-08-20T16:34:42.601Z,97777.52
2018-08-20T16:37:11.949Z,97778.69
2018-08-20T16:39:41.230Z,97782.23
2018-08-20T16:42:10.462Z,97783.90
2018-08-20T16:44:39.504Z,97779.59
2018-08-20T16:47:08.814Z,97778.51
2018-08-20T16:49:37.607Z,97784.31
2018-08-20T16:52:07.160Z,97783.95
2018-08-20T16:54:36.270Z,97787.62
2018-08-20T16:57:05.331Z,97791.23
2018-08-20T16:59:34.463Z,97792.49
2018-08-20T17:02:03.496Z,97806.65
2018-08-20T17:04:42.432Z,97814.86
2018-08-20T17:07:11.526Z,97811.18
2018-08-20T17:09:40.722Z,97814.94
2018-08-20T17:12:09.855Z,97813.14
2018-08-20T17:14:38.706Z,97820.86
2018-08-20T17:17:07.598Z,97821.67
2018-08-20T17:19:36.406Z,97828.47
2018-08-20T17:22:05.190Z,97818.42
2018-08-20T17:24:41.840Z,97817.84
2018-08-20T17:27:11.786Z,97828.75
2018-08-20T17:29:41.014Z,97834.67
2018-08-20T17:32:10.448Z,97831.86
2018-08-20T17:34:40.714Z,97835.27
2018-08-20T17:37:10.759Z,97834.98
2018-08-20T17:39:56.225Z,97836.84
2018-08-20T17:42:26.691Z,97839.53
2018-08-20T17:44:55.902Z,97839.28
2018-08-20T17:47:26.289Z,97842.11
2018-08-20T17:49:56.595Z,97843.75
2018-08-20T17:52:39.211Z,97848.39
2018-08-20T17:55:08.434Z,97846.52
2018-08-20T17:57:37.540Z,97841.52
2018-08-20T18:00:47.085Z,97856.84
2018-08-20T18:03:22.949Z,97855.19
2018-08-20T18:05:53.799Z,97862.78
2018-08-20T18:08:24.147Z,97863.14
2018-08-20T18:10:53.387Z,97857.60
2018-08-20T18:13:34.311Z,97866.78
2018-08-20T18:16:05.843Z,97864.17
2018-08-20T18:18:35.524Z,97871.94
2018-08-20T18:21:04.722Z,97870.52
2018-08-20T18:23:34.796Z,97872.15
2018-08-20T18:26:04.111Z,97875.08
2018-08-20T18:29:06.119Z,97872.41
2018-08-20T18:31:35.877Z,97876.47
2018-08-20T18:34:05.108Z,97880.83
2018-08-20T18:36:34.151Z,97879.63
2018-08-20T18:39:06.968Z,97881.83
2018-08-20T18:41:52.421Z,97891.27
2018-08-20T18:44:22.942Z,97889.50
2018-08-20T18:46:52.513Z,97889.50
2018-08-20T18:49:22.611Z,97890.94
2018-08-20T18:51:57.440Z,97894.82
2018-08-20T18:54:27.045Z,97900.77
2018-08-20T18:57:03.253Z,97902.24
2018-08-20T18:59:32.462Z,97897.64
2018-08-20T19:02:01.739Z,97901.09
2018-08-20T19:04:38.056Z,97894.86
2018-08-20T19:07:11.474Z,97903.67
2018-08-20T19:09:41.398Z,97905.63
2018-08-20T19:12:10.582Z,97909.08
2018-08-20T19:14:39.584Z,97915.61
2018-08-20T19:17:13.750Z,97918.61
2018-08-20T19:19:48.447Z,97918.64
2018-08-20T19:22:22.706Z,97918.44
2018-08-20T19:24:51.810Z,97920.11
2018-08-20T19:27:20.959Z,97913.71
2018-08-20T19:29:50.083Z,97917.87
2018-08-20T19:32:18.963Z,97914.57
2018-08-20T19:34:47.772Z,97912.78
2018-08-20T19:37:16.972Z,97915.62
2018-08-20T19:39:46.291Z,97910.55
2018-08-20T19:42:21.701Z,97919.30
2018-08-20T19:44:50.929Z,97918.16
2018-08-20T19:47:20.042Z,97915.66
2018-08-20T19:49:49.175Z,97916.88
2018-08-20T19:52:18.201Z,97916.50
2018-08-20T19:54:50.481Z,97915.39
2018-08-20T19:57:19.674Z,97915.36
2018-08-20T19:59:49.271Z,97915.43
2018-08-20T20:02:18.347Z,97920.17
2018-08-20T20:04:47.426Z,97924.69
2018-08-20T20:07:16.260Z,97919.84
2018-08-20T20:09:45.483Z,97919.87
2018-08-20T20:12:14.536Z,97924.86
2018-08-20T20:14:47.491Z,97932.38
2018-08-20T20:17:16.865Z,97927.42
2018-08-20T20:19:46.686Z,97931.69
2018-08-20T20:22:17.317Z,97940.59
2018-08-20T20:24:46.490Z,97940.48
2018-08-20T20:27:15.515Z,97945.61
2018-08-20T20:29:44.650Z,97943.67
2018-08-20T20:32:13.794Z,97943.54
2018-08-20T20:34:42.742Z,97944.88
2018-08-20T20:37:11.839Z,97947.91
2018-08-20T20:39:45.166Z,97935.52
2018-08-20T20:42:14.268Z,97939.02
2018-08-20T20:44:43.437Z,97939.66
2018-08-20T20:47:12.346Z,97929.34
2018-08-20T20:49:41.594Z,97939.89
2018-08-20T20:52:10.810Z,97932.85
2018-08-20T20:54:40.143Z,97940.51
2018-08-20T20:57:09.431Z,97940.97
2018-08-20T20:59:38.751Z,97943.16
2018-08-20T21:02:08.590Z,97936.23
2018-08-20T21:04:38.000Z,97948.00
2018-08-20T21:07:06.890Z,97948.02
2018-08-20T21:09:41.050Z,97948.44
2018-08-20T21:12:10.418Z,97948.06
2018-08-20T21:14:39.501Z,97948.66
2018-08-20T21:17:08.462Z,97950.47
2018-08-20T21:19:37.637Z,97947.09
2018-08-20T21:22:07.447Z,97951.31
2018-08-20T21:24:36.645Z,97948.88
2018-08-20T21:27:13.801Z,97959.81
2018-08-20T21:29:43.283Z,97956.76
2018-08-20T21:32:12.475Z,97953.32
2018-08-20T21:34:42.295Z,97961.19
2018-08-20T21:37:11.886Z,97951.48
2018-08-20T21:39:40.962Z,97955.72
2018-08-20T21:42:10.084Z,97963.02
2018-08-20T21:44:39.183Z,97955.64
2018-08-20T21:47:29.279Z,97960.00
2018-08-20T21:49:58.612Z,97956.23
2018-08-20T21:52:27.902Z,97956.35
2018-08-20T21:54:56.668Z,97959.50
2018-08-20T21:57:25.782Z,97960.69
2018-08-20T22:00:05.107Z,97962.61
2018-08-20T22:02:34.318Z,97957.03
2018-08-20T22:05:03.669Z,97964.09
2018-08-20T22:07:33.146Z,97951.96
2018-08-20T22:10:02.212Z,97952.44
2018-08-20T22:12:31.053Z,97952.56
2018-08-20T22:15:00.410Z,97953.89
2018-08-20T22:17:29.321Z,97947.75
2018-08-20T22:19:58.740Z,97951.20
2018-08-20T22:22:28.641Z,97953.00
2018-08-20T22:24:58.519Z,97953.00
2018-08-20T22:27:28.745Z,97955.20
2018-08-20T22:30:02.389Z,97952.43
2018-08-20T22:32:32.247Z,97954.93
2018-08-20T22:35:01.509Z,97953.36
2018-08-20T22:37:30.495Z,97948.77
2018-08-20T22:40:04.244Z,97952.77
2018-08-20T22:42:45.069Z,97950.45
2018-08-20T22:45:15.466Z,97959.32
2018-08-20T22:47:45.406Z,97959.67
2018-08-20T22:50:14.704Z,97961.25
2018-08-20T22:52:45.178Z,97955.76
2018-08-20T22:55:16.034Z,97961.84
2018-08-20T22:58:17.427Z,97963.61
2018-08-20T23:00:46.703Z,97957.41
2018-08-20T23:03:15.818Z,97957.53
2018-08-20T23:05:44.959Z,97954.51
2018-08-20T23:08:17.983Z,97950.44
2018-08-20T23:10:47.189Z,97947.77
2018-08-20T23:13:15.926Z,97948.43
2018-08-20T23:15:44.769Z,97949.36
2018-08-20T23:18:14.062Z,97951.33
2018-08-20T23:20:43.301Z,97950.44
2018-08-20T23:23:12.706Z,97948.80
2018-08-20T23:25:41.714Z,97954.28
2018-08-20T23:28:10.578Z,97957.19
2018-08-20T23:30:41.278Z,97955.33
2018-08-20T23:33:10.435Z,97958.91
2018-08-20T23:35:39.334Z,97958.09
2018-08-20T23:38:08.614Z,97962.21
2018-08-20T23:40:37.657Z,97958.52
2018-08-20T23:43:06.743Z,97962.34
2018-08-20T23:45:35.950Z,97955.28
2018-08-20T23:48:05.213Z,97955.98
2018-08-20T23:50:34.328Z,97952.61
2018-08-20T23:53:03.366Z,97955.23
2018-08-20T23:55:32.556Z,97947.99
2018-08-20T23:58:01.815Z,97950.89
